CZUM/ZUM METAR and TAF weather

Enter ICAO airport designator
Station Type Date Time Source
CZUM METAR 2020/09/18 19:00 UTC NOAA

CZUM 181900Z AUTO 27011G19KT 240V300 9SM FEW060 07/M05 A2994 RMK TS/LTNG TEMPO UNAVBL SLP158


Station Type Date Time Source
CZUM Decoded METAR 2020/09/18 19:00 UTC NOAA

Churchill Falls, Nfld., Canada (CZUM) 53-33N 064-06W 440M
Sep 18, 2020 - 03:00 PM EDT / 2020.09.18 1900 UTC
Wind: from the W (270 degrees) at 13 MPH (11 KT) gusting to 22 MPH (19 KT) (direction variable):0
Visibility: 9 mile(s):0
Sky conditions: mostly clear
Temperature: 44 F (7 C)
Dew Point: 23 F (-5 C)
Relative Humidity: 42%
Pressure (altimeter): 29.94 in. Hg (1013 hPa)
ob: CZUM 181900Z AUTO 27011G19KT 240V300 9SM FEW060 07/M05 A2994 RMK TS/LTNG TEMPO UNAVBL SLP158
cycle: 19

Station Type Date Time Source
CZUM TAF 2020/09/18 20:42 UTC NOAA

TAF CZUM 181938Z 1820/1908 28008G18KT P6SM SCT050
TEMPO 1820/1902 P6SM -SHRA BKN050
BECMG 1900/1902 27006KT
FM190500 27005KT P6SM SCT020
TEMPO 1905/1908 SCT002 BKN020 PROB40 1905/1908 1SM BR BKN002
RMK FCST BASED ON AUTO OBS. NXT FCST BY 190200Z

Example: see airport list